Time;durP1;ratioP1;P1;durP2;ratioP2;P2;SDS_P1;SDS_P2;PMS_P1;PMS_P2;Temp;Humidity;BMP_temperature;BMP_pressure;BME280_temperature;BME280_humidity;BME280_pressure;Samples;Min_cycle;Max_cycle;Signal;HPM_P1;HPM_P2
2023/12/06 00:01:25;;;;;;;25.00;18.17;;;0.90;99.90;;;;;;5077686;28;20322;-76
2023/12/06 00:03:51;;;;;;;28.13;19.20;;;1.00;99.90;;;;;;5077198;28;20170;-78
2023/12/06 00:06:16;;;;;;;27.67;19.33;;;1.00;99.90;;;;;;5077103;28;20630;-78
2023/12/06 00:08:42;;;;;;;27.27;19.27;;;1.00;99.90;;;;;;5076813;28;20227;-77
2023/12/06 00:11:08;;;;;;;26.20;18.37;;;1.10;99.90;;;;;;5076368;28;20634;-78
2023/12/06 00:13:34;;;;;;;30.40;19.63;;;1.00;99.90;;;;;;5059328;28;20639;-77
2023/12/06 00:16:00;;;;;;;27.60;19.33;;;1.00;99.90;;;;;;5079111;28;20537;-77
2023/12/06 00:18:27;;;;;;;33.37;19.60;;;1.00;99.90;;;;;;5093074;28;20646;-77
2023/12/06 00:20:53;;;;;;;30.30;18.87;;;1.00;99.90;;;;;;5083621;28;20173;-76
2023/12/06 00:23:19;;;;;;;29.87;19.07;;;0.90;99.90;;;;;;5078142;28;20217;-78
2023/12/06 00:25:45;;;;;;;28.83;19.27;;;1.00;99.90;;;;;;5062059;28;20269;-77
2023/12/06 00:28:10;;;;;;;30.30;18.53;;;0.90;99.90;;;;;;5076361;28;20268;-76
2023/12/06 00:30:37;;;;;;;30.40;19.57;;;1.00;99.90;;;;;;5076407;28;20571;-77
2023/12/06 00:33:03;;;;;;;28.17;19.03;;;1.00;99.90;;;;;;5076322;28;20211;-76
2023/12/06 00:35:29;;;;;;;27.33;18.43;;;1.10;99.90;;;;;;5076345;28;20191;-76
2023/12/06 00:37:55;;;;;;;29.27;19.57;;;1.00;99.90;;;;;;5076623;28;20597;-76
2023/12/06 00:40:21;;;;;;;29.63;18.90;;;1.10;99.90;;;;;;5076964;28;20193;-77
2023/12/06 00:42:46;;;;;;;31.37;19.63;;;1.10;99.90;;;;;;5084218;28;20179;-76
2023/12/06 00:45:12;;;;;;;28.07;19.60;;;1.10;99.90;;;;;;5094595;28;20185;-78
2023/12/06 00:47:38;;;;;;;27.83;18.37;;;1.10;99.90;;;;;;5062355;28;20221;-76
2023/12/06 00:50:05;;;;;;;27.57;19.47;;;1.10;99.90;;;;;;5076882;28;20168;-77
2023/12/06 00:52:31;;;;;;;28.50;18.67;;;1.20;99.90;;;;;;5078242;28;20214;-78
2023/12/06 00:54:57;;;;;;;29.43;20.13;;;1.20;99.90;;;;;;5086946;28;20209;-77
2023/12/06 00:57:23;;;;;;;28.40;19.27;;;1.20;99.90;;;;;;5093469;28;20181;-76
2023/12/06 00:59:49;;;;;;;32.80;20.70;;;1.30;99.90;;;;;;5086119;28;20202;-77
2023/12/06 01:02:14;;;;;;;29.43;19.90;;;1.20;99.90;;;;;;5077334;28;20171;-79
2023/12/06 01:04:40;;;;;;;30.47;19.83;;;1.20;99.90;;;;;;5080790;28;20176;-76
2023/12/06 01:07:06;;;;;;;28.73;19.33;;;1.10;99.90;;;;;;5076903;28;20176;-77
2023/12/06 01:09:32;;;;;;;25.83;18.37;;;1.10;99.90;;;;;;5075529;28;20299;-78
2023/12/06 01:11:58;;;;;;;28.30;19.27;;;1.10;99.90;;;;;;5075268;28;20213;-75
2023/12/06 01:14:24;;;;;;;28.20;19.33;;;1.20;99.90;;;;;;5075685;28;20637;-76
2023/12/06 01:16:50;;;;;;;29.33;19.63;;;1.20;99.90;;;;;;5075581;28;20297;-77
2023/12/06 01:19:16;;;;;;;27.03;18.60;;;1.30;99.90;;;;;;5075532;28;20252;-77
2023/12/06 01:21:42;;;;;;;29.87;18.70;;;1.40;99.90;;;;;;5075888;28;20175;-77
2023/12/06 01:24:08;;;;;;;28.37;19.07;;;1.30;99.90;;;;;;5076406;28;20178;-78
2023/12/06 01:26:34;;;;;;;28.07;19.40;;;1.20;99.90;;;;;;5075177;28;20269;-76
2023/12/06 01:29:03;;;;;;;28.47;19.00;;;1.20;99.90;;;;;;5076113;28;20177;-79
2023/12/06 01:31:29;;;;;;;29.80;19.47;;;1.10;99.90;;;;;;5076064;28;20156;-78
2023/12/06 01:33:55;;;;;;;30.00;19.83;;;0.90;99.90;;;;;;5075590;28;20650;-77
2023/12/06 01:36:21;;;;;;;27.00;19.80;;;0.80;99.90;;;;;;5074999;28;20182;-79
2023/12/06 01:38:50;;;;;;;29.97;19.07;;;0.80;99.90;;;;;;5057215;28;20179;-76
2023/12/06 01:41:16;;;;;;;32.33;20.80;;;0.70;99.90;;;;;;5075271;28;20247;-78
2023/12/06 01:43:45;;;;;;;28.53;20.10;;;0.70;99.90;;;;;;5056548;28;20637;-78
2023/12/06 01:46:11;;;;;;;33.87;20.50;;;0.80;99.90;;;;;;5075193;28;20175;-76
2023/12/06 01:48:38;;;;;;;29.70;20.33;;;0.70;99.90;;;;;;5056812;28;20219;-79
2023/12/06 01:51:04;;;;;;;28.43;20.13;;;0.70;99.90;;;;;;5075246;28;20203;-77
2023/12/06 01:53:31;;;;;;;32.93;21.03;;;0.70;99.90;;;;;;5057838;28;20548;-77
2023/12/06 01:55:58;;;;;;;31.03;20.40;;;0.60;99.90;;;;;;5073929;28;20249;-78
2023/12/06 01:58:24;;;;;;;29.87;21.33;;;0.70;99.90;;;;;;5074655;28;20195;-79
2023/12/06 02:00:51;;;;;;;31.57;20.33;;;0.80;99.90;;;;;;5074874;28;20185;-78
2023/12/06 02:03:18;;;;;;;31.50;20.73;;;0.80;99.90;;;;;;5074721;28;20537;-78
2023/12/06 02:05:44;;;;;;;30.63;21.80;;;0.80;99.90;;;;;;5074930;28;20243;-78
2023/12/06 02:08:11;;;;;;;30.57;20.70;;;0.70;99.90;;;;;;5059019;28;20240;-79
2023/12/06 02:10:37;;;;;;;35.07;21.17;;;0.70;99.90;;;;;;5097594;28;20181;-79
2023/12/06 02:13:03;;;;;;;33.30;20.97;;;0.80;99.90;;;;;;5107225;28;20266;-77
2023/12/06 02:15:29;;;;;;;32.13;20.53;;;0.70;99.90;;;;;;5105282;28;20171;-77
2023/12/06 02:17:55;;;;;;;31.23;20.47;;;0.60;99.90;;;;;;5097688;28;20208;-78
2023/12/06 02:20:22;;;;;;;34.47;21.13;;;0.60;99.90;;;;;;5103870;28;20182;-76
2023/12/06 02:22:52;;;;;;;35.17;21.17;;;0.60;99.90;;;;;;5113567;28;20171;-79
2023/12/06 02:25:19;;;;;;;34.17;21.10;;;0.70;99.90;;;;;;5109935;28;20246;-78
2023/12/06 02:27:46;;;;;;;31.13;20.90;;;0.70;99.90;;;;;;5094209;28;20255;-79
2023/12/06 02:30:12;;;;;;;32.43;20.77;;;0.70;99.90;;;;;;5093188;28;20202;-79
2023/12/06 02:32:38;;;;;;;32.93;20.50;;;0.70;99.90;;;;;;5094395;28;20203;-76
2023/12/06 02:35:14;;;;;;;33.07;21.43;;;0.90;99.90;;;;;;5095178;28;20166;-77
2023/12/06 02:37:41;;;;;;;32.37;21.03;;;0.90;99.90;;;;;;5094892;28;20150;-76
2023/12/06 02:40:12;;;;;;;34.07;22.37;;;0.90;99.90;;;;;;5093848;28;20186;-79
2023/12/06 02:42:38;;;;;;;30.87;21.33;;;0.90;99.90;;;;;;5095171;28;20266;-78
2023/12/06 02:45:04;;;;;;;30.73;20.20;;;0.70;99.90;;;;;;5095957;28;20204;-77
2023/12/06 02:47:30;;;;;;;32.93;22.33;;;0.70;99.90;;;;;;5097532;28;20244;-78
2023/12/06 02:49:56;;;;;;;34.63;22.03;;;0.60;99.90;;;;;;5096597;28;20208;-79
2023/12/06 02:52:21;;;;;;;34.50;22.50;;;0.60;99.90;;;;;;5094447;28;20579;-77
2023/12/06 02:54:47;;;;;;;33.57;20.90;;;0.60;99.90;;;;;;5094298;28;20640;-78
2023/12/06 02:57:13;;;;;;;33.50;21.90;;;0.60;99.90;;;;;;5094943;28;20219;-79
2023/12/06 02:59:39;;;;;;;34.80;22.13;;;0.60;99.90;;;;;;5094349;28;20181;-78
2023/12/06 03:02:05;;;;;;;32.70;21.47;;;0.50;99.90;;;;;;5092135;28;20187;-77
2023/12/06 03:04:30;;;;;;;37.10;22.20;;;0.40;99.90;;;;;;5093356;28;20169;-77
2023/12/06 03:06:56;;;;;;;36.87;22.10;;;0.40;99.90;;;;;;5093722;28;20737;-78
2023/12/06 03:09:22;;;;;;;33.23;22.23;;;0.30;99.90;;;;;;5092776;28;20229;-77
2023/12/06 03:11:48;;;;;;;35.23;22.80;;;0.30;99.90;;;;;;5092920;28;20197;-79
2023/12/06 03:14:14;;;;;;;37.10;23.30;;;0.30;99.90;;;;;;5093312;28;20178;-79
2023/12/06 03:16:40;;;;;;;35.10;22.90;;;0.30;99.90;;;;;;5093236;28;20173;-78
2023/12/06 03:19:06;;;;;;;34.63;22.87;;;0.30;99.90;;;;;;5093053;28;20543;-77
2023/12/06 03:21:31;;;;;;;33.53;22.00;;;0.30;99.90;;;;;;5092544;28;20178;-78
2023/12/06 03:23:57;;;;;;;29.73;20.90;;;0.40;99.90;;;;;;5093721;28;20253;-75
2023/12/06 03:26:23;;;;;;;35.13;22.43;;;0.50;99.90;;;;;;5096086;28;20453;-78
2023/12/06 03:28:48;;;;;;;34.63;22.30;;;0.70;99.90;;;;;;5105826;28;20237;-79
2023/12/06 03:31:14;;;;;;;33.57;22.23;;;0.80;99.90;;;;;;5093828;28;20181;-76
2023/12/06 03:33:40;;;;;;;34.17;21.50;;;0.80;99.90;;;;;;5094420;28;20184;-79
2023/12/06 03:36:10;;;;;;;36.17;20.73;;;0.90;99.90;;;;;;5096680;28;20319;-78
2023/12/06 03:38:36;;;;;;;30.90;20.43;;;0.90;99.90;;;;;;5095367;28;20177;-77
2023/12/06 03:41:02;;;;;;;32.23;20.77;;;0.90;99.90;;;;;;5097438;28;20178;-77
2023/12/06 03:43:27;;;;;;;31.43;20.13;;;1.00;99.90;;;;;;5097967;28;20537;-80
2023/12/06 03:45:53;;;;;;;28.23;19.57;;;0.90;99.90;;;;;;5096844;28;20194;-78
2023/12/06 03:48:19;;;;;;;30.50;20.37;;;1.00;99.90;;;;;;5096788;28;20205;-78
2023/12/06 03:50:45;;;;;;;28.40;19.70;;;1.00;99.90;;;;;;5096147;28;20178;-78
2023/12/06 03:53:11;;;;;;;31.83;19.03;;;1.10;99.90;;;;;;5097262;28;20263;-79
2023/12/06 03:55:36;;;;;;;28.23;19.00;;;1.10;99.90;;;;;;5097804;28;20568;-78
2023/12/06 03:58:02;;;;;;;29.70;19.27;;;1.10;99.90;;;;;;5097853;28;20173;-78
2023/12/06 04:00:28;;;;;;;30.73;20.27;;;1.10;99.90;;;;;;5079886;28;20170;-78
2023/12/06 04:02:54;;;;;;;27.43;19.93;;;1.10;99.90;;;;;;5104886;28;20248;-79
2023/12/06 04:05:21;;;;;;;27.43;18.97;;;1.10;99.90;;;;;;5102483;28;20206;-77
2023/12/06 04:07:46;;;;;;;32.27;20.37;;;1.10;99.90;;;;;;5091949;28;20211;-78
2023/12/06 04:10:13;;;;;;;33.40;21.10;;;1.10;99.90;;;;;;5076454;28;20173;-77
2023/12/06 04:12:38;;;;;;;30.60;20.63;;;1.10;99.90;;;;;;5076687;28;20204;-78
2023/12/06 04:15:05;;;;;;;30.17;19.90;;;1.40;99.90;;;;;;5076218;28;20182;-79
2023/12/06 04:17:31;;;;;;;29.97;20.50;;;1.10;99.90;;;;;;5076734;28;20168;-79
2023/12/06 04:19:57;;;;;;;30.90;19.37;;;1.10;99.90;;;;;;5058603;28;20201;-76
2023/12/06 04:22:23;;;;;;;27.80;18.77;;;1.10;99.90;;;;;;5060961;28;20546;-77
2023/12/06 04:24:48;;;;;;;27.67;19.00;;;1.10;99.90;;;;;;5092538;28;20201;-78
2023/12/06 04:27:14;;;;;;;29.77;19.77;;;1.10;99.90;;;;;;5061939;28;20183;-77
2023/12/06 04:29:40;;;;;;;30.47;20.03;;;1.10;99.90;;;;;;5076753;28;20189;-78
2023/12/06 04:32:06;;;;;;;31.97;20.00;;;1.00;99.90;;;;;;5080759;28;20202;-76
2023/12/06 04:34:33;;;;;;;26.43;18.60;;;1.10;99.90;;;;;;5064184;28;20183;-80
2023/12/06 04:36:59;;;;;;;31.47;19.53;;;1.00;99.90;;;;;;5078657;28;20171;-79
2023/12/06 04:39:25;;;;;;;31.27;20.90;;;1.00;99.90;;;;;;5076739;28;20178;-78
2023/12/06 04:41:50;;;;;;;27.87;19.00;;;1.00;99.90;;;;;;5058817;28;20183;-76
2023/12/06 04:44:16;;;;;;;30.93;19.37;;;1.00;99.90;;;;;;5076126;28;20186;-77
2023/12/06 04:46:42;;;;;;;32.33;19.83;;;1.10;99.90;;;;;;5077862;28;20166;-78
2023/12/06 04:49:09;;;;;;;29.13;19.97;;;1.10;99.90;;;;;;5060458;28;20177;-75
2023/12/06 04:51:35;;;;;;;31.17;19.80;;;1.10;99.90;;;;;;5058626;28;20211;-78
2023/12/06 04:54:01;;;;;;;29.87;19.47;;;1.00;99.90;;;;;;5076172;28;20638;-78
2023/12/06 04:56:27;;;;;;;27.67;18.97;;;1.00;99.90;;;;;;5076059;28;20181;-79
2023/12/06 04:58:52;;;;;;;29.60;19.60;;;1.10;99.90;;;;;;5076781;28;20189;-79
2023/12/06 05:01:18;;;;;;;30.93;20.17;;;1.00;99.90;;;;;;5076469;28;20182;-78
2023/12/06 05:03:44;;;;;;;28.83;19.43;;;1.10;99.90;;;;;;5058121;28;20183;-80
2023/12/06 05:06:11;;;;;;;28.63;19.10;;;1.00;99.90;;;;;;5091893;28;20186;-80
2023/12/06 05:08:37;;;;;;;27.93;18.53;;;1.00;99.90;;;;;;5095874;28;20222;-77
2023/12/06 05:11:03;;;;;;;31.23;19.43;;;1.00;99.90;;;;;;5078084;28;20187;-79
2023/12/06 05:13:29;;;;;;;28.50;19.97;;;1.00;99.90;;;;;;5099326;28;20244;-77
2023/12/06 05:15:55;;;;;;;28.53;19.20;;;1.10;99.90;;;;;;5098778;28;20235;-76
2023/12/06 05:18:20;;;;;;;32.20;21.17;;;1.20;99.90;;;;;;5078592;28;20628;-76
2023/12/06 05:20:46;;;;;;;28.63;19.43;;;1.20;99.90;;;;;;5098087;28;20175;-76
2023/12/06 05:23:12;;;;;;;31.20;19.93;;;1.10;99.90;;;;;;5100058;28;20182;-77
2023/12/06 05:25:38;;;;;;;27.03;18.73;;;1.20;99.90;;;;;;5098179;28;20290;-76
2023/12/06 05:28:06;;;;;;;30.93;19.20;;;1.20;99.90;;;;;;5099316;28;20533;-78
2023/12/06 05:30:31;;;;;;;28.80;19.73;;;1.20;99.90;;;;;;5097138;28;20286;-78
2023/12/06 05:32:57;;;;;;;33.13;20.70;;;1.20;99.90;;;;;;5095408;28;20776;-78
2023/12/06 05:35:23;;;;;;;28.57;20.23;;;1.20;99.90;;;;;;5097964;28;20684;-77
2023/12/06 05:37:49;;;;;;;31.50;20.57;;;1.20;99.90;;;;;;5112505;28;20228;-78
2023/12/06 05:40:15;;;;;;;31.67;21.63;;;1.20;99.90;;;;;;5110847;28;20209;-78
2023/12/06 05:42:40;;;;;;;37.97;22.23;;;1.20;99.90;;;;;;5086702;28;20177;-77
2023/12/06 05:45:07;;;;;;;38.10;23.23;;;1.20;99.90;;;;;;5109445;28;20188;-78
2023/12/06 05:47:33;;;;;;;36.07;22.30;;;1.20;99.90;;;;;;5108742;28;20176;-78
2023/12/06 05:49:58;;;;;;;33.23;21.43;;;1.20;99.90;;;;;;5102386;28;20239;-79
2023/12/06 05:52:24;;;;;;;35.87;22.17;;;1.30;99.90;;;;;;5098290;28;20218;-78
2023/12/06 05:54:51;;;;;;;31.63;21.23;;;1.20;99.90;;;;;;5097301;28;20192;-78
2023/12/06 05:57:17;;;;;;;31.83;21.00;;;1.20;99.90;;;;;;5107630;28;20197;-76
2023/12/06 05:59:43;;;;;;;28.97;20.00;;;1.30;99.90;;;;;;5110138;28;20250;-76
2023/12/06 06:02:09;;;;;;;30.50;20.10;;;1.30;99.90;;;;;;5096578;28;20219;-75
2023/12/06 06:04:34;;;;;;;29.47;19.50;;;0.40;99.90;;;;;;5078126;28;20179;-76
2023/12/06 06:07:00;;;;;;;32.63;20.40;;;1.40;99.90;;;;;;5091201;28;20171;-76
2023/12/06 06:09:26;;;;;;;32.93;19.87;;;1.50;99.90;;;;;;5095591;28;20253;-78
2023/12/06 06:11:52;;;;;;;30.60;20.87;;;1.50;99.90;;;;;;5095774;28;20202;-77
2023/12/06 06:14:17;;;;;;;30.53;21.70;;;1.50;99.90;;;;;;5096360;28;20709;-75
2023/12/06 06:16:43;;;;;;;36.43;22.57;;;1.50;99.90;;;;;;5099123;28;20174;-78
2023/12/06 06:19:09;;;;;;;34.90;24.07;;;1.60;99.90;;;;;;5078366;28;20495;-76
2023/12/06 06:21:34;;;;;;;33.50;22.40;;;1.50;99.90;;;;;;5056729;28;20182;-75
2023/12/06 06:24:00;;;;;;;35.63;21.77;;;1.50;99.90;;;;;;5065143;28;20174;-76
2023/12/06 06:26:26;;;;;;;33.30;21.60;;;1.50;99.90;;;;;;5065568;28;20187;-78
2023/12/06 06:28:52;;;;;;;32.93;21.27;;;1.50;99.90;;;;;;5073359;28;20206;-77
2023/12/06 06:31:18;;;;;;;30.30;19.87;;;1.50;99.90;;;;;;5075380;28;20196;-76
2023/12/06 06:33:44;;;;;;;28.40;19.93;;;1.50;99.90;;;;;;5073856;28;20215;-78
2023/12/06 06:36:10;;;;;;;29.13;20.00;;;1.60;99.90;;;;;;5074487;28;20171;-78
2023/12/06 06:38:37;;;;;;;36.03;21.80;;;1.60;99.90;;;;;;5073903;28;20919;-78
2023/12/06 06:41:03;;;;;;;33.00;19.60;;;1.60;99.90;;;;;;5074936;28;20174;-77
2023/12/06 06:43:29;;;;;;;32.70;21.43;;;1.80;99.90;;;;;;5076132;28;20606;-76
2023/12/06 06:45:55;;;;;;;32.50;21.40;;;1.90;99.90;;;;;;5074664;28;20372;-77
2023/12/06 06:48:21;;;;;;;31.00;20.93;;;2.10;99.90;;;;;;5073918;28;20200;-77
2023/12/06 06:50:47;;;;;;;33.77;22.27;;;1.90;99.90;;;;;;5073367;28;20632;-76
2023/12/06 06:53:13;;;;;;;37.60;22.93;;;2.00;99.90;;;;;;5073367;28;20214;-76
2023/12/06 06:55:38;;;;;;;35.17;23.37;;;1.90;99.90;;;;;;5056087;28;20186;-76
2023/12/06 06:58:04;;;;;;;32.60;22.53;;;1.90;99.90;;;;;;5072184;28;20187;-77
2023/12/06 07:00:30;;;;;;;31.93;21.90;;;1.80;99.90;;;;;;5073520;28;20174;-77
2023/12/06 07:02:56;;;;;;;35.87;21.90;;;1.80;99.90;;;;;;5073351;28;20171;-78
2023/12/06 07:05:21;;;;;;;32.80;20.87;;;1.90;99.90;;;;;;5074079;28;20255;-79
2023/12/06 07:07:47;;;;;;;36.27;21.70;;;1.80;99.90;;;;;;5072448;28;20255;-77
2023/12/06 07:10:13;;;;;;;36.33;20.73;;;1.80;99.90;;;;;;5073501;28;20160;-78
2023/12/06 07:12:39;;;;;;;32.20;21.97;;;1.80;99.90;;;;;;5073460;28;20285;-77
2023/12/06 07:15:05;;;;;;;32.23;20.30;;;1.80;99.90;;;;;;5074223;28;20186;-77
2023/12/06 07:17:31;;;;;;;34.73;22.07;;;1.80;99.90;;;;;;5056291;28;20222;-77
2023/12/06 07:19:58;;;;;;;31.77;21.03;;;1.80;99.90;;;;;;5074808;28;20586;-76
2023/12/06 07:22:24;;;;;;;33.13;20.83;;;1.80;99.90;;;;;;5073743;28;20175;-78
2023/12/06 07:24:50;;;;;;;30.63;19.80;;;1.80;99.90;;;;;;5084739;28;20223;-78
2023/12/06 07:27:15;;;;;;;33.60;21.93;;;1.80;99.90;;;;;;5085818;28;20184;-76
2023/12/06 07:29:44;;;;;;;35.33;21.23;;;1.70;99.90;;;;;;5075050;28;20643;-77
2023/12/06 07:32:10;;;;;;;36.10;22.17;;;1.80;99.90;;;;;;5073716;28;20210;-78
2023/12/06 07:34:35;;;;;;;31.87;22.20;;;1.80;99.90;;;;;;5074177;28;20195;-76
2023/12/06 07:37:02;;;;;;;32.00;21.77;;;1.80;99.90;;;;;;5073882;28;20175;-76
2023/12/06 07:39:27;;;;;;;31.77;21.50;;;1.70;99.90;;;;;;5073808;28;20519;-78
2023/12/06 07:41:53;;;;;;;36.63;21.87;;;1.70;99.90;;;;;;5073857;28;20172;-75
2023/12/06 07:44:22;;;;;;;35.23;22.03;;;1.60;99.90;;;;;;5073939;28;20631;-76
2023/12/06 07:46:48;;;;;;;37.60;20.93;;;1.60;99.90;;;;;;5074102;28;20194;-75
2023/12/06 07:49:15;;;;;;;34.27;21.43;;;1.70;99.90;;;;;;5073999;28;20647;-77
2023/12/06 07:51:41;;;;;;;32.77;20.67;;;1.80;99.90;;;;;;5072692;28;20166;-76
2023/12/06 07:54:07;;;;;;;31.53;21.33;;;1.80;99.90;;;;;;5073582;28;20180;-76
2023/12/06 07:56:33;;;;;;;37.10;20.57;;;1.80;99.90;;;;;;5073718;28;20175;-78
2023/12/06 07:59:00;;;;;;;34.00;22.33;;;1.80;99.90;;;;;;5073692;28;20213;-77
2023/12/06 08:01:31;;;;;;;33.37;21.77;;;1.80;99.90;;;;;;5073581;28;20456;-76
2023/12/06 08:03:57;;;;;;;33.80;21.10;;;1.90;99.90;;;;;;5073465;28;20612;-77
2023/12/06 08:06:23;;;;;;;31.97;22.93;;;1.90;99.90;;;;;;5074021;28;20197;-78
2023/12/06 08:08:53;;;;;;;36.70;21.93;;;1.90;99.90;;;;;;5083984;28;20235;-77
2023/12/06 08:11:23;;;;;;;33.83;21.37;;;1.90;99.90;;;;;;5087307;28;20236;-77
2023/12/06 08:13:49;;;;;;;33.10;21.90;;;2.00;99.90;;;;;;5055738;28;20220;-78
2023/12/06 08:16:15;;;;;;;34.37;21.97;;;2.00;99.90;;;;;;5073301;28;20233;-77
2023/12/06 08:18:41;;;;;;;34.40;22.00;;;2.00;99.90;;;;;;5072672;28;20181;-77
2023/12/06 08:21:09;;;;;;;34.03;21.03;;;1.90;99.90;;;;;;5073034;28;20164;-78
2023/12/06 08:23:35;;;;;;;34.30;20.83;;;1.90;99.90;;;;;;5076338;28;20198;-76
2023/12/06 08:26:02;;;;;;;35.67;21.90;;;1.80;99.90;;;;;;5082851;28;20177;-78
2023/12/06 08:28:27;;;;;;;34.47;22.17;;;1.80;99.90;;;;;;5080850;28;20183;-78
2023/12/06 08:30:53;;;;;;;37.03;22.57;;;1.70;99.90;;;;;;5091847;28;20179;-76
2023/12/06 08:33:19;;;;;;;34.27;22.53;;;1.80;99.90;;;;;;5088886;28;20309;-76
2023/12/06 08:35:45;;;;;;;32.90;21.80;;;1.90;99.90;;;;;;5064055;28;20175;-78
2023/12/06 08:38:11;;;;;;;37.90;22.90;;;1.90;99.90;;;;;;5076464;28;20182;-78
2023/12/06 08:40:37;;;;;;;35.10;22.63;;;1.80;99.90;;;;;;5076649;28;20184;-76
2023/12/06 08:43:03;;;;;;;35.13;22.40;;;1.90;99.90;;;;;;5082071;28;20194;-76
2023/12/06 08:45:29;;;;;;;35.80;22.13;;;2.10;99.90;;;;;;5077942;28;20186;-77
2023/12/06 08:47:55;;;;;;;34.43;21.60;;;2.10;99.90;;;;;;5058454;28;20188;-76
2023/12/06 08:50:21;;;;;;;32.83;21.73;;;2.10;99.90;;;;;;5075552;28;20633;-76
2023/12/06 08:52:47;;;;;;;36.73;22.43;;;2.20;99.90;;;;;;5076032;28;20232;-76
2023/12/06 08:55:13;;;;;;;34.07;21.90;;;2.40;99.90;;;;;;5075872;28;20180;-77
2023/12/06 08:57:39;;;;;;;32.60;21.87;;;2.50;99.90;;;;;;5076415;28;20170;-77
2023/12/06 09:00:07;;;;;;;35.23;22.40;;;2.70;99.90;;;;;;5076433;28;20558;-76
2023/12/06 09:02:37;;;;;;;32.50;21.27;;;2.70;99.90;;;;;;5076187;28;20176;-76
2023/12/06 09:05:02;;;;;;;34.07;21.70;;;2.80;99.90;;;;;;5076016;28;20165;-77
2023/12/06 09:07:28;;;;;;;32.17;21.10;;;2.90;99.90;;;;;;5075363;28;20222;-76
2023/12/06 09:09:55;;;;;;;33.73;21.60;;;2.90;99.90;;;;;;5076226;28;20170;-76
2023/12/06 09:12:21;;;;;;;27.43;20.17;;;2.80;99.90;;;;;;5076155;28;20227;-77
2023/12/06 09:14:47;;;;;;;33.40;21.43;;;2.90;99.90;;;;;;5076743;28;20175;-77
2023/12/06 09:17:12;;;;;;;31.17;21.67;;;3.00;99.90;;;;;;5075377;28;20635;-78
2023/12/06 09:19:38;;;;;;;35.20;21.70;;;3.00;99.90;;;;;;5075834;28;20178;-77
2023/12/06 09:22:05;;;;;;;34.87;23.00;;;3.00;99.90;;;;;;5075890;28;20182;-76
2023/12/06 09:24:31;;;;;;;32.80;22.37;;;3.00;99.90;;;;;;5075584;28;20175;-77
2023/12/06 09:26:57;;;;;;;33.20;22.70;;;2.90;99.90;;;;;;5076057;28;20208;-75
2023/12/06 09:29:23;;;;;;;31.33;22.50;;;2.80;99.90;;;;;;5075321;28;20173;-75
2023/12/06 09:31:49;;;;;;;34.93;22.17;;;3.00;99.90;;;;;;5057656;28;20218;-77
2023/12/06 09:34:14;;;;;;;34.20;21.40;;;3.00;99.90;;;;;;5057400;28;20187;-77
2023/12/06 09:36:40;;;;;;;33.03;22.60;;;2.90;99.90;;;;;;5075556;28;20175;-77
2023/12/06 09:39:06;;;;;;;37.87;22.93;;;2.90;99.90;;;;;;5075326;28;20538;-76
2023/12/06 09:41:33;;;;;;;33.23;21.47;;;2.70;99.90;;;;;;5075552;28;20171;-76
2023/12/06 09:43:59;;;;;;;33.57;21.63;;;2.70;99.90;;;;;;5074657;28;20178;-75
2023/12/06 09:46:26;;;;;;;35.73;22.33;;;2.60;99.90;;;;;;5075219;28;20643;-75
2023/12/06 09:48:54;;;;;;;39.03;23.37;;;2.80;99.90;;;;;;5075029;28;20215;-77
2023/12/06 09:51:22;;;;;;;31.80;22.13;;;3.10;99.90;;;;;;5074501;28;20196;-75
2023/12/06 09:53:48;;;;;;;33.77;22.13;;;3.20;99.90;;;;;;5075143;28;20678;-75
2023/12/06 09:56:14;;;;;;;37.07;22.90;;;3.20;99.90;;;;;;5075088;28;20178;-76
2023/12/06 09:58:41;;;;;;;32.97;22.10;;;3.40;99.90;;;;;;5093806;28;20273;-77
2023/12/06 10:01:08;;;;;;;32.73;23.10;;;3.30;99.90;;;;;;5104127;28;20201;-76
2023/12/06 10:03:34;;;;;;;38.10;22.80;;;3.20;99.90;;;;;;5097597;28;20210;-77
2023/12/06 10:06:03;;;;;;;33.67;21.63;;;3.20;99.90;;;;;;5094942;28;20736;-78
2023/12/06 10:08:33;;;;;;;32.60;22.47;;;3.30;99.90;;;;;;5094121;28;20694;-78
2023/12/06 10:11:09;;;;;;;35.03;22.50;;;3.40;99.90;;;;;;5095911;28;20220;-75
2023/12/06 10:13:40;;;;;;;31.87;22.73;;;3.30;99.90;;;;;;5101927;28;20251;-76
2023/12/06 10:16:14;;;;;;;30.50;21.37;;;3.20;99.90;;;;;;5094392;28;20270;-77
2023/12/06 10:18:40;;;;;;;36.57;23.00;;;3.30;99.90;;;;;;5094033;28;20182;-77
2023/12/06 10:21:06;;;;;;;32.93;21.90;;;3.40;99.90;;;;;;5095160;28;20175;-76
2023/12/06 10:23:32;;;;;;;35.53;23.43;;;3.30;99.90;;;;;;5076562;28;20545;-77
2023/12/06 10:25:58;;;;;;;34.53;21.63;;;3.30;99.90;;;;;;5094544;28;20187;-77
2023/12/06 10:28:24;;;;;;;35.23;23.30;;;3.30;99.90;;;;;;5095030;28;20614;-76
2023/12/06 10:31:03;;;;;;;40.40;24.80;;;3.30;99.90;;;;;;5094969;28;20174;-76
2023/12/06 10:33:30;;;;;;;35.17;22.90;;;3.40;99.90;;;;;;5100469;28;20224;-78
2023/12/06 10:36:08;;;;;;;33.00;22.53;;;3.40;99.90;;;;;;5096190;28;20197;-76
2023/12/06 10:38:37;;;;;;;40.10;23.87;;;4.00;99.90;;;;;;5094966;28;20166;-77
2023/12/06 10:41:07;;;;;;;35.20;22.47;;;3.50;99.90;;;;;;5076122;28;20176;-76
2023/12/06 10:43:35;;;;;;;34.73;22.47;;;3.40;99.90;;;;;;5076567;28;20263;-76
2023/12/06 10:46:01;;;;;;;35.10;23.83;;;3.50;99.90;;;;;;5093918;28;20179;-77
2023/12/06 10:48:28;;;;;;;34.60;24.80;;;3.50;99.90;;;;;;5094346;28;20171;-77
2023/12/06 10:50:56;;;;;;;36.87;23.63;;;3.60;99.90;;;;;;5094974;28;20259;-76
2023/12/06 10:53:22;;;;;;;34.73;23.87;;;3.70;99.90;;;;;;5096678;28;20212;-78
2023/12/06 10:55:48;;;;;;;34.60;23.37;;;3.60;99.90;;;;;;5104009;28;20201;-77
2023/12/06 10:58:17;;;;;;;34.43;23.57;;;3.50;99.90;;;;;;5102040;28;20193;-77
2023/12/06 11:00:44;;;;;;;31.83;22.63;;;3.40;99.90;;;;;;5093518;28;20179;-76
2023/12/06 11:03:10;;;;;;;34.73;23.47;;;3.30;99.90;;;;;;5092914;28;20175;-76
2023/12/06 11:05:41;;;;;;;36.17;23.00;;;3.50;99.90;;;;;;5093538;28;20175;-77
2023/12/06 11:08:40;;;;;;;35.43;23.27;;;3.70;99.90;;;;;;5088689;28;20226;-76
2023/12/06 11:11:09;;;;;;;38.07;24.73;;;3.70;99.90;;;;;;5031315;28;20791;-75
2023/12/06 11:13:52;;;;;;;37.60;24.20;;;3.60;99.90;;;;;;5015660;28;20308;-75
2023/12/06 11:16:30;;;;;;;38.20;24.67;;;3.60;99.90;;;;;;5032149;28;20197;-78
2023/12/06 11:18:56;;;;;;;36.27;25.53;;;3.30;99.90;;;;;;5033242;28;20180;-76
2023/12/06 11:21:24;;;;;;;36.57;23.73;;;3.10;99.90;;;;;;5036992;28;20213;-77
2023/12/06 11:23:51;;;;;;;38.13;24.40;;;3.30;99.90;;;;;;5032292;28;20211;-75
2023/12/06 11:26:17;;;;;;;36.13;24.17;;;3.50;99.90;;;;;;5032138;28;20222;-76
2023/12/06 11:28:43;;;;;;;39.17;25.03;;;3.60;99.90;;;;;;5032156;28;20280;-76
2023/12/06 11:31:13;;;;;;;37.60;25.17;;;3.70;99.90;;;;;;5033336;28;20236;-75
2023/12/06 11:33:39;;;;;;;39.10;24.37;;;3.70;99.90;;;;;;5031647;28;20281;-76
2023/12/06 11:36:15;;;;;;;36.90;24.97;;;3.90;99.90;;;;;;5031369;28;20211;-77
2023/12/06 11:38:42;;;;;;;40.97;24.03;;;3.80;99.90;;;;;;5033929;28;20165;-77
2023/12/06 11:41:17;;;;;;;33.13;23.87;;;3.90;99.90;;;;;;5033307;28;20220;-74
2023/12/06 11:43:52;;;;;;;34.20;23.70;;;4.00;99.90;;;;;;5031598;28;20184;-76
2023/12/06 11:46:21;;;;;;;36.57;24.07;;;3.90;99.90;;;;;;5031884;28;20521;-76
2023/12/06 11:48:48;;;;;;;36.00;25.33;;;3.80;99.90;;;;;;5107702;28;20186;-76
2023/12/06 11:51:24;;;;;;;39.47;25.17;;;3.70;99.90;;;;;;5114570;28;20171;-75
2023/12/06 11:53:51;;;;;;;40.20;25.30;;;3.50;99.90;;;;;;5112907;28;20676;-77
2023/12/06 11:56:24;;;;;;;41.13;25.80;;;3.50;99.90;;;;;;5114233;28;20202;-75
2023/12/06 11:58:50;;;;;;;37.70;26.10;;;3.80;99.90;;;;;;5118302;28;20162;-75
2023/12/06 12:01:19;;;;;;;40.57;26.03;;;3.90;99.90;;;;;;5117900;28;20203;-76
2023/12/06 12:03:47;;;;;;;40.47;26.03;;;3.90;99.90;;;;;;5117586;28;20177;-77
2023/12/06 12:06:15;;;;;;;40.00;27.17;;;4.10;99.90;;;;;;5117700;28;20219;-77
2023/12/06 12:08:42;;;;;;;39.17;25.37;;;4.20;99.90;;;;;;5104882;28;20229;-76
2023/12/06 12:11:09;;;;;;;39.93;25.97;;;4.20;99.90;;;;;;5079733;28;20198;-76
2023/12/06 12:13:40;;;;;;;38.43;26.60;;;4.20;99.90;;;;;;5096617;28;20205;-77
2023/12/06 12:16:06;;;;;;;39.47;26.83;;;4.10;99.90;;;;;;5097366;28;20178;-78
2023/12/06 12:18:32;;;;;;;41.83;27.07;;;4.20;99.90;;;;;;5097688;28;20184;-76
2023/12/06 12:20:59;;;;;;;40.50;26.90;;;4.30;99.90;;;;;;5097261;28;20193;-77
2023/12/06 12:23:26;;;;;;;41.07;27.00;;;4.20;99.90;;;;;;5097518;28;20176;-79
2023/12/06 12:25:52;;;;;;;42.40;27.27;;;4.10;99.90;;;;;;5097344;28;20260;-75
2023/12/06 12:28:19;;;;;;;40.90;27.83;;;4.20;99.90;;;;;;5078834;28;20282;-77
2023/12/06 12:31:05;;;;;;;44.83;27.00;;;4.40;99.90;;;;;;5096697;28;20656;-75
2023/12/06 12:33:32;;;;;;;41.47;27.13;;;4.40;99.90;;;;;;5113735;28;20194;-77